Time;durP1;ratioP1;P1;durP2;ratioP2;P2;SDS_P1;SDS_P2;PMS_P1;PMS_P2;Temp;Humidity;BMP_temperature;BMP_pressure;BME280_temperature;BME280_humidity;BME280_pressure;Samples;Min_cycle;Max_cycle;Signal;HPM_P1;HPM_P2
2022/05/13 01:31:37;;;;;;;5.70;1.60;;;;;;;10.00;75.62;98891.29;103542;1291;61151;-25
2022/05/13 01:34:11;;;;;;;6.50;2.00;;;;;;;9.70;77.03;98894.98;104728;1277;74507;-25
2022/05/13 01:36:39;;;;;;;18.80;1.60;;;;;;;9.47;78.39;98890.88;104650;1277;74855;-25
2022/05/13 01:39:07;;;;;;;11.10;2.00;;;;;;;9.93;78.04;98893.06;104570;1277;74220;-26
2022/05/13 01:41:35;;;;;;;7.40;1.80;;;;;;;10.48;76.27;98892.31;104372;1277;62419;-26
2022/05/13 01:44:02;;;;;;;9.10;2.40;;;;;;;10.52;75.60;98892.99;104696;1277;61855;-26
2022/05/13 01:46:31;;;;;;;7.40;1.90;;;;;;;10.30;75.54;98887.84;104746;1276;74693;-26
2022/05/13 01:48:58;;;;;;;9.50;2.00;;;;;;;10.04;75.97;98892.69;104601;1277;75921;-26
2022/05/13 01:51:27;;;;;;;13.50;2.40;;;;;;;9.78;76.31;98897.80;104604;1277;74235;-25
2022/05/13 01:53:55;;;;;;;13.10;2.80;;;;;;;9.54;76.77;98891.71;104704;1277;61137;-26
2022/05/13 01:56:22;;;;;;;9.70;1.60;;;;;;;9.35;77.40;98891.27;104657;1277;61264;-26
2022/05/13 01:58:50;;;;;;;4.50;1.40;;;;;;;9.79;77.22;98895.08;104632;1277;74680;-26
2022/05/13 02:01:18;;;;;;;7.30;1.80;;;;;;;10.34;75.30;98897.05;104671;1277;76097;-26
2022/05/13 02:03:45;;;;;;;7.80;2.30;;;;;;;10.42;75.23;98896.98;104615;1277;74417;-26
2022/05/13 02:06:16;;;;;;;10.60;2.20;;;;;;;10.24;75.95;98889.90;104396;1275;61837;-26
2022/05/13 02:08:44;;;;;;;7.70;2.10;;;;;;;10.01;77.20;98890.70;104655;1274;62490;-26
2022/05/13 02:11:12;;;;;;;9.90;2.50;;;;;;;9.84;77.26;98893.79;104646;1274;74736;-26
2022/05/13 02:13:40;;;;;;;9.30;1.60;;;;;;;9.68;77.29;98894.61;104594;1274;75947;-26
2022/05/13 02:16:10;;;;;;;9.80;1.90;;;;;;;10.03;77.11;98899.42;104637;1274;74800;-26
2022/05/13 02:18:39;;;;;;;13.40;2.60;;;;;;;10.51;75.12;98902.99;104353;1277;61144;-27
2022/05/13 02:21:08;;;;;;;14.20;3.20;;;;;;;10.49;74.81;98901.41;104669;1274;61099;-23
2022/05/13 02:23:36;;;;;;;12.40;2.30;;;;;;;10.26;75.21;98898.59;104683;1274;74929;-23
2022/05/13 02:26:06;;;;;;;15.10;3.50;;;;;;;9.98;75.54;98900.17;104525;1274;75983;-27
2022/05/13 02:28:34;;;;;;;15.00;2.60;;;;;;;9.69;76.08;98897.27;104350;1275;74304;-27
2022/05/13 02:31:02;;;;;;;7.80;1.80;;;;;;;9.45;77.03;98890.70;104626;1274;61210;-27
2022/05/13 02:33:31;;;;;;;3.90;1.80;;;;;;;9.79;77.41;98888.70;104636;1273;62178;-27
2022/05/13 02:36:00;;;;;;;10.60;2.20;;;;;;;10.29;76.10;98891.76;104640;1276;74776;-27
2022/05/13 02:38:28;;;;;;;6.50;2.30;;;;;;;10.34;75.47;98892.01;104625;1274;76225;-27
2022/05/13 02:41:11;;;;;;;15.70;3.00;;;;;;;10.18;75.43;98890.34;104555;1274;74479;-27
2022/05/13 02:43:39;;;;;;;4.80;1.90;;;;;;;9.94;76.68;98892.83;104561;1274;61195;-27
2022/05/13 02:46:07;;;;;;;7.80;2.90;;;;;;;9.75;75.70;98892.43;104612;1274;61774;-27
2022/05/13 02:48:35;;;;;;;5.70;1.80;;;;;;;9.55;76.24;98893.15;104662;1274;74611;-27
2022/05/13 02:51:03;;;;;;;7.60;2.00;;;;;;;9.93;76.27;98892.35;104609;1274;75906;-27
2022/05/13 02:53:31;;;;;;;14.40;2.40;;;;;;;10.46;74.96;98890.21;104633;1274;74430;-27
2022/05/13 02:55:58;;;;;;;9.90;2.00;;;;;;;10.57;74.36;98886.87;104616;1274;61131;-27
2022/05/13 02:58:26;;;;;;;4.40;2.10;;;;;;;10.52;74.18;98880.36;104790;1274;61143;-27
2022/05/13 03:00:54;;;;;;;6.80;3.20;;;;;;;10.45;75.07;98882.48;104600;1274;74621;-27
2022/05/13 03:03:22;;;;;;;11.00;3.30;;;;;;;10.43;75.67;98882.64;104629;1274;76078;-27
2022/05/13 03:05:51;;;;;;;11.80;1.50;;;;;;;10.51;75.35;98884.60;104634;1274;74234;-27
2022/05/13 03:08:19;;;;;;;8.30;1.80;;;;;;;11.26;74.18;98879.94;104836;1274;61063;-27
2022/05/13 03:10:47;;;;;;;3.10;2.10;;;;;;;12.05;71.75;98879.88;104666;1274;61090;-27
2022/05/13 03:13:18;;;;;;;2.70;1.80;;;;;;;12.25;70.22;98885.69;104587;1274;74666;-27
2022/05/13 03:15:48;;;;;;;4.80;2.60;;;;;;;12.13;69.80;98889.59;104354;1274;75835;-27
2022/05/13 03:18:16;;;;;;;5.40;2.80;;;;;;;11.80;70.28;98894.00;104623;1274;74488;-27
2022/05/13 03:20:43;;;;;;;3.00;2.50;;;;;;;11.62;70.70;98894.26;104631;1274;61166;-27
2022/05/13 03:23:11;;;;;;;4.60;2.60;;;;;;;11.59;70.79;98891.34;104724;1274;61153;-28
2022/05/13 03:25:38;;;;;;;1.60;1.40;;;;;;;11.67;70.65;98896.41;104843;1274;72922;-27
2022/05/13 03:28:06;;;;;;;4.50;1.80;;;;;;;12.26;70.43;98899.66;104590;1277;76096;-27
2022/05/13 03:30:34;;;;;;;6.50;2.20;;;;;;;13.00;69.06;98900.58;104619;1274;74494;-27
2022/05/13 03:33:01;;;;;;;4.70;2.20;;;;;;;13.36;67.75;98893.23;104568;1274;61266;-27
2022/05/13 03:35:29;;;;;;;9.40;2.90;;;;;;;13.67;67.31;98896.59;104833;1274;61143;-28
2022/05/13 03:37:57;;;;;;;9.30;2.60;;;;;;;13.91;66.45;98897.72;104655;1276;74829;-27
2022/05/13 03:40:25;;;;;;;10.30;2.10;;;;;;;14.05;66.46;98903.57;104632;1274;75921;-27
2022/05/13 03:42:53;;;;;;;14.20;2.60;;;;;;;14.07;66.30;98901.30;104646;1274;74421;-27
2022/05/13 03:45:21;;;;;;;3.90;2.40;;;;;;;14.03;66.59;98905.68;104592;1277;62432;-27
2022/05/13 03:47:49;;;;;;;9.40;1.80;;;;;;;14.00;67.22;98911.36;104596;1275;61027;-27
2022/05/13 03:50:16;;;;;;;9.40;2.20;;;;;;;14.65;67.43;98914.73;104599;1274;74701;-27
2022/05/13 03:52:44;;;;;;;7.40;1.90;;;;;;;15.42;65.55;98915.52;104636;1274;74860;-27
2022/05/13 03:55:12;;;;;;;4.40;1.90;;;;;;;15.67;64.28;98923.27;104683;1274;74230;-27
2022/05/13 03:57:40;;;;;;;6.80;2.40;;;;;;;15.26;63.16;98918.77;104615;1277;61096;-27
2022/05/13 04:00:09;;;;;;;10.70;3.40;;;;;;;14.79;64.43;98914.45;104608;1277;61322;-27
2022/05/13 04:02:38;;;;;;;11.90;2.40;;;;;;;14.40;65.57;98913.94;104395;1275;74836;-27
2022/05/13 04:10:48;;;;;;;8.00;3.20;;;;;;;13.38;67.22;98915.50;104934;1271;61879;-27
2022/05/13 04:16:06;;;;;;;16.60;2.70;;;;;;;13.08;68.28;98918.37;104801;1271;75340;-27
2022/05/13 04:18:38;;;;;;;4.70;2.10;;;;;;;13.65;68.27;98921.21;104664;1274;76132;-27
2022/05/13 04:21:11;;;;;;;7.60;2.60;;;;;;;14.21;66.80;98930.65;104730;1271;74282;-27
2022/05/13 04:23:40;;;;;;;11.90;2.80;;;;;;;14.19;66.30;98934.98;104784;1271;61255;-28
2022/05/13 04:26:11;;;;;;;4.40;2.30;;;;;;;13.85;66.58;98931.04;104697;1271;61135;-27
2022/05/13 04:28:41;;;;;;;11.10;2.60;;;;;;;13.54;67.45;98930.05;104914;1271;75453;-25
2022/05/13 04:31:09;;;;;;;3.80;2.50;;;;;;;13.49;67.64;98935.56;104683;1271;75129;-26
2022/05/13 04:33:37;;;;;;;7.20;3.00;;;;;;;13.35;68.88;98937.48;104860;1271;74396;-26
2022/05/13 04:36:05;;;;;;;9.40;2.30;;;;;;;13.26;69.49;98938.95;104710;1271;61163;-26
2022/05/13 04:38:33;;;;;;;19.70;2.90;;;;;;;13.15;69.44;98947.84;104542;1273;61171;-26
2022/05/13 04:43:48;;;;;;;5.40;1.50;;;;;;;13.03;70.59;98948.41;104799;1271;75848;-26
2022/05/13 04:46:16;;;;;;;7.90;1.90;;;;;;;13.72;69.51;98949.86;104798;1271;74398;-26
2022/05/13 04:48:46;;;;;;;4.10;1.70;;;;;;;14.38;67.25;98955.54;104722;1271;61065;-26
2022/05/13 04:51:17;;;;;;;10.40;2.20;;;;;;;14.64;67.07;98958.74;104807;1272;61656;-26
2022/05/13 04:53:47;;;;;;;4.50;1.90;;;;;;;14.81;66.96;98958.61;104884;1271;75573;-26
2022/05/13 04:56:14;;;;;;;6.20;2.30;;;;;;;14.91;66.09;98957.14;104760;1271;76139;-26
2022/05/13 04:58:42;;;;;;;9.20;2.10;;;;;;;14.93;66.49;98962.32;104901;1271;74420;-27
2022/05/13 05:01:10;;;;;;;7.80;2.00;;;;;;;15.04;66.45;98965.26;104918;1271;61127;-26
2022/05/13 05:03:40;;;;;;;7.80;2.00;;;;;;;15.10;66.51;98961.79;105057;1271;62347;-26
2022/05/13 05:06:08;;;;;;;8.10;2.30;;;;;;;15.25;66.94;98965.55;104726;1271;75582;-26
2022/05/13 05:08:36;;;;;;;11.00;2.50;;;;;;;15.38;66.10;98969.67;104903;1271;75897;-26
2022/05/13 05:11:05;;;;;;;3.90;1.40;;;;;;;15.46;66.17;98969.58;105035;1271;74318;-26
2022/05/13 05:13:34;;;;;;;6.10;1.80;;;;;;;16.12;65.84;98971.27;104962;1271;61210;-27
2022/05/13 05:16:02;;;;;;;5.70;1.70;;;;;;;16.78;63.10;98968.72;104670;1272;61132;-28
2022/05/13 05:18:31;;;;;;;8.80;1.80;;;;;;;17.06;61.20;98966.19;104839;1272;75785;-26
2022/05/13 05:20:59;;;;;;;12.10;1.90;;;;;;;17.16;60.60;98964.78;104905;1271;75978;-26
2022/05/13 05:23:30;;;;;;;4.30;1.80;;;;;;;17.18;60.23;98965.92;104971;1271;74561;-26
2022/05/13 05:25:57;;;;;;;8.20;1.80;;;;;;;16.98;60.08;98970.41;105099;1271;62076;-26
2022/05/13 05:28:26;;;;;;;8.70;2.00;;;;;;;16.61;60.47;98975.95;105162;1271;61211;-26
2022/05/13 05:30:55;;;;;;;7.30;1.70;;;;;;;16.43;60.90;98975.73;104935;1271;73889;-27
2022/05/13 05:33:24;;;;;;;10.30;1.80;;;;;;;16.31;61.44;98973.73;105060;1271;76098;-26
2022/05/13 05:35:52;;;;;;;9.90;2.00;;;;;;;16.10;61.68;98975.79;105149;1271;76188;-28
2022/05/13 05:38:20;;;;;;;5.70;1.80;;;;;;;15.96;62.43;98975.60;105143;1271;61137;-26
2022/05/13 05:40:48;;;;;;;5.10;1.80;;;;;;;15.84;62.69;98982.08;105135;1274;61141;-27
2022/05/13 05:43:16;;;;;;;5.80;2.10;;;;;;;15.64;63.18;98981.38;105148;1271;75706;-25
2022/05/13 05:45:44;;;;;;;8.10;1.80;;;;;;;15.56;62.63;98978.85;104918;1271;75204;-26
2022/05/13 05:48:13;;;;;;;12.30;2.30;;;;;;;15.32;62.70;98984.96;105138;1272;74366;-26
2022/05/13 05:50:41;;;;;;;4.60;1.90;;;;;;;15.21;64.23;98993.05;104925;1271;61859;-28
2022/05/13 05:53:09;;;;;;;7.30;2.10;;;;;;;15.25;64.07;98995.98;105093;1271;61877;-27
2022/05/13 05:58:24;;;;;;;8.70;2.10;;;;;;;15.35;64.91;98999.02;105076;1274;75789;-26
2022/05/13 06:00:52;;;;;;;3.90;1.20;;;;;;;15.47;65.98;99004.44;105000;1271;73029;-26
2022/05/13 06:03:20;;;;;;;5.10;1.50;;;;;;;16.18;63.84;99007.33;104804;1274;61985;-26
2022/05/13 06:05:57;;;;;;;7.60;1.90;;;;;;;16.86;61.19;99007.80;105076;1271;61156;-26
2022/05/13 06:08:26;;;;;;;6.20;1.80;;;;;;;16.95;60.11;99007.57;104823;1271;75570;-26
2022/05/13 06:10:53;;;;;;;13.50;3.40;;;;;;;16.94;60.48;99007.42;104980;1271;74808;-25
2022/05/13 06:13:22;;;;;;;6.70;2.10;;;;;;;16.85;60.89;99003.38;104867;1271;74264;-25
2022/05/13 06:15:50;;;;;;;4.20;1.80;;;;;;;16.85;61.99;99002.50;104890;1271;61946;-27
2022/05/13 06:18:17;;;;;;;3.70;2.10;;;;;;;16.93;61.13;98999.85;104851;1271;62158;-25
2022/05/13 06:20:45;;;;;;;4.80;1.90;;;;;;;16.98;60.20;98998.66;104827;1272;75336;-25
2022/05/13 06:23:12;;;;;;;6.70;2.10;;;;;;;17.04;59.38;98999.17;104902;1271;76135;-25
2022/05/13 06:25:41;;;;;;;8.80;2.10;;;;;;;17.05;60.00;98999.30;104939;1271;74281;-25
2022/05/13 06:28:09;;;;;;;11.90;3.00;;;;;;;17.19;59.83;98998.71;104857;1271;61121;-25
2022/05/13 06:30:36;;;;;;;7.30;2.40;;;;;;;17.19;59.12;98991.55;105058;1271;62006;-25
2022/05/13 06:33:05;;;;;;;5.20;3.00;;;;;;;17.04;59.72;98992.04;104913;1271;75912;-25
2022/05/13 06:35:34;;;;;;;7.60;2.30;;;;;;;16.93;59.32;98993.33;104682;1274;76248;-25
2022/05/13 06:38:02;;;;;;;7.00;3.00;;;;;;;16.93;58.92;98997.61;105092;1272;74618;-25
2022/05/13 06:40:30;;;;;;;14.50;2.90;;;;;;;16.88;59.40;98993.39;104678;1271;61920;-25
2022/05/13 06:43:03;;;;;;;7.10;2.20;;;;;;;17.07;59.75;98999.06;105034;1274;61514;-25
2022/05/13 06:45:31;;;;;;;6.20;2.30;;;;;;;17.18;59.11;99004.23;105117;1271;77256;-25
2022/05/13 06:47:59;;;;;;;8.20;2.00;;;;;;;17.19;58.68;99005.83;105153;1271;76030;-25
2022/05/13 06:50:27;;;;;;;6.80;2.90;;;;;;;17.22;59.55;99012.17;104806;1272;73581;-25
2022/05/13 06:52:57;;;;;;;3.60;2.40;;;;;;;17.22;59.42;99010.39;105131;1271;61074;-25
2022/05/13 06:55:27;;;;;;;6.40;2.00;;;;;;;17.23;59.15;99009.97;104839;1271;61070;-25
2022/05/13 06:57:55;;;;;;;6.20;2.20;;;;;;;17.22;58.97;99008.17;104917;1271;74465;-26
2022/05/13 07:00:23;;;;;;;10.50;2.90;;;;;;;17.22;58.79;99011.13;104771;1271;76015;-25
2022/05/13 07:02:51;;;;;;;10.80;2.90;;;;;;;17.07;59.53;99010.08;104987;1274;74486;-25
2022/05/13 07:05:20;;;;;;;11.70;2.30;;;;;;;17.07;59.22;99008.73;104852;1271;61172;-25
2022/05/13 07:07:48;;;;;;;15.40;3.00;;;;;;;17.11;61.15;99019.67;104935;1271;61173;-26
2022/05/13 07:10:16;;;;;;;13.40;2.50;;;;;;;17.16;59.46;99014.96;105014;1271;75521;-27
2022/05/13 07:12:44;;;;;;;7.40;2.20;;;;;;;17.20;60.36;99013.08;105042;1271;75938;-26
2022/05/13 07:15:13;;;;;;;5.60;2.30;;;;;;;17.23;60.44;99011.91;104997;1271;74284;-26
2022/05/13 07:17:42;;;;;;;11.40;2.40;;;;;;;17.21;58.96;99007.21;104911;1271;61766;-26
2022/05/13 07:20:11;;;;;;;14.80;2.10;;;;;;;17.27;60.59;99007.10;105174;1271;61953;-26
2022/05/13 07:22:41;;;;;;;11.20;2.00;;;;;;;17.35;59.22;98997.23;105108;1271;74537;-26
2022/05/13 07:25:09;;;;;;;5.10;2.00;;;;;;;17.37;58.56;98998.44;105191;1271;75052;-26
2022/05/13 07:27:37;;;;;;;7.20;1.70;;;;;;;17.41;59.25;98990.64;105102;1271;74735;-26
2022/05/13 07:30:06;;;;;;;3.30;1.80;;;;;;;17.49;58.72;98986.18;105165;1271;61153;-26
2022/05/13 07:32:34;;;;;;;8.40;2.00;;;;;;;17.58;57.90;98986.52;104795;1274;61056;-26
2022/05/13 07:35:02;;;;;;;4.60;1.80;;;;;;;17.71;57.23;98980.15;105071;1274;75546;-26
2022/05/13 07:37:30;;;;;;;7.40;1.70;;;;;;;17.84;56.88;98981.63;104801;1274;75922;-26
2022/05/13 07:42:45;;;;;;;12.50;2.30;;;;;;;18.03;57.23;98981.67;104975;1272;61236;-26
2022/05/13 07:45:12;;;;;;;12.70;2.20;;;;;;;18.29;57.05;98976.53;105154;1271;61188;-26
2022/05/13 07:47:42;;;;;;;11.00;2.20;;;;;;;18.49;55.57;98978.71;105141;1271;75814;-26
2022/05/13 07:50:11;;;;;;;3.50;2.00;;;;;;;18.38;55.71;98980.89;104945;1272;76044;-26
2022/05/13 07:52:40;;;;;;;9.00;2.10;;;;;;;18.34;55.58;98977.05;104785;1271;73148;-26
2022/05/13 07:55:10;;;;;;;8.50;2.70;;;;;;;18.25;55.76;98983.03;105127;1271;62392;-26
2022/05/13 07:57:39;;;;;;;5.80;2.20;;;;;;;18.06;55.76;98987.56;104735;1274;61185;-26
2022/05/13 08:00:32;;;;;;;6.00;1.90;;;;;;;17.87;55.03;98988.88;104941;1271;75381;-26
2022/05/13 08:03:11;;;;;;;7.40;2.20;;;;;;;17.75;57.40;98993.36;104853;1271;75438;-26
2022/05/13 08:05:48;;;;;;;7.30;2.10;;;;;;;17.73;57.77;98993.90;104826;1271;74223;-26
2022/05/13 08:08:20;;;;;;;5.90;2.80;;;;;;;17.73;57.27;98992.48;104931;1271;61917;-26
2022/05/13 08:10:54;;;;;;;15.90;2.30;;;;;;;17.83;57.14;98985.75;104788;1271;61033;-26
2022/05/13 08:13:22;;;;;;;13.00;2.20;;;;;;;17.99;57.21;98984.36;104823;1271;75631;-26
2022/05/13 08:15:50;;;;;;;6.60;2.00;;;;;;;18.14;56.23;98984.05;104827;1272;75696;-26
2022/05/13 08:18:18;;;;;;;3.50;1.70;;;;;;;18.22;56.46;98980.02;104993;1274;74419;-26
2022/05/13 08:20:46;;;;;;;4.40;2.00;;;;;;;18.33;54.78;98981.06;104900;1271;61594;-26
2022/05/13 08:23:14;;;;;;;12.00;3.20;;;;;;;18.34;54.23;98975.14;105148;1271;61005;-26
2022/05/13 08:25:41;;;;;;;9.20;2.20;;;;;;;18.34;53.43;98976.20;105152;1271;75594;-26
2022/05/13 08:28:09;;;;;;;13.40;2.00;;;;;;;18.39;52.67;98979.00;105127;1271;75843;-25
2022/05/13 08:30:37;;;;;;;3.00;1.40;;;;;;;18.37;49.61;98976.61;105126;1271;73298;-26
2022/05/13 08:33:11;;;;;;;3.90;1.50;;;;;;;18.36;50.54;98974.83;105154;1271;61162;-26
2022/05/13 08:35:41;;;;;;;13.60;1.90;;;;;;;18.39;49.21;98972.67;105129;1274;61046;-25
2022/05/13 08:38:11;;;;;;;5.90;1.30;;;;;;;18.51;51.84;98974.19;104930;1271;75412;-26
2022/05/13 08:41:08;;;;;;;7.80;1.90;;;;;;;18.67;49.76;98972.55;105142;1272;76068;-25
2022/05/13 08:43:43;;;;;;;5.20;1.70;;;;;;;18.60;47.87;98976.54;105177;1271;74651;-25
2022/05/13 08:46:10;;;;;;;7.60;1.50;;;;;;;18.85;47.94;98979.27;104730;1271;61166;-27
2022/05/13 08:49:00;;;;;;;8.00;1.30;;;;;;;19.02;49.46;98978.91;104913;1271;61019;-24
2022/05/13 08:51:27;;;;;;;7.80;1.20;;;;;;;18.73;47.44;98974.30;104921;1272;75556;-25
2022/05/13 08:54:17;;;;;;;4.20;0.80;;;;;;;18.90;45.83;98966.72;104897;1271;75843;-24
2022/05/13 08:56:50;;;;;;;4.90;1.30;;;;;;;18.73;45.58;98967.14;104824;1271;74304;-25
2022/05/13 08:59:27;;;;;;;4.70;1.10;;;;;;;18.97;46.17;98967.15;104892;1274;62101;-24
2022/05/13 09:02:03;;;;;;;4.10;1.40;;;;;;;19.10;45.68;98965.39;104999;1272;61118;-25
2022/05/13 09:04:41;;;;;;;4.10;1.20;;;;;;;18.97;45.78;98965.52;105109;1271;75732;-25
2022/05/13 09:07:12;;;;;;;2.70;1.20;;;;;;;18.87;46.01;98965.89;105078;1271;75866;-25
2022/05/13 09:09:41;;;;;;;6.00;1.30;;;;;;;18.97;45.76;98954.27;104867;1271;73373;-25
2022/05/13 09:12:21;;;;;;;7.10;1.30;;;;;;;18.85;45.10;98960.48;104856;1274;61964;-24
2022/05/13 09:14:57;;;;;;;5.30;1.10;;;;;;;19.10;43.79;98960.48;104925;1271;62031;-24
2022/05/13 09:17:37;;;;;;;4.10;1.10;;;;;;;19.25;44.20;98962.63;105049;1271;75395;-25
2022/05/13 09:20:12;;;;;;;1.10;0.60;;;;;;;19.05;44.19;98964.80;105077;1272;75905;-24
2022/05/13 09:22:44;;;;;;;3.50;0.60;;;;;;;19.30;42.91;98960.82;105091;1271;74584;-24
2022/05/13 09:25:26;;;;;;;7.60;1.80;;;;;;;19.24;43.88;98958.15;105001;1271;62136;-24
2022/05/13 09:28:09;;;;;;;9.90;1.60;;;;;;;19.36;42.58;98963.48;105047;1272;62060;-24
2022/05/13 09:30:44;;;;;;;4.10;0.90;;;;;;;19.16;42.46;98954.86;105109;1271;75552;-25
2022/05/13 09:33:21;;;;;;;4.10;1.30;;;;;;;18.95;42.31;98958.44;105106;1271;75985;-25
2022/05/13 09:35:52;;;;;;;5.40;1.20;;;;;;;18.95;42.84;98955.75;105087;1272;74292;-24
2022/05/13 09:38:23;;;;;;;3.20;0.90;;;;;;;18.85;42.72;98958.73;104894;1271;62067;-25
2022/05/13 09:41:04;;;;;;;7.10;1.00;;;;;;;18.71;42.95;98952.90;104907;1272;61945;-24
2022/05/13 09:43:39;;;;;;;5.10;1.20;;;;;;;18.77;43.91;98956.30;104704;1271;75449;-26
2022/05/13 09:46:33;;;;;;;4.60;1.10;;;;;;;19.06;43.62;98951.16;104708;1271;75880;-24
2022/05/13 09:49:17;;;;;;;5.70;1.00;;;;;;;19.10;44.08;98951.46;105019;1271;74423;-25
2022/05/13 09:51:56;;;;;;;3.70;1.00;;;;;;;19.26;43.84;98947.73;105058;1271;61861;-24
2022/05/13 09:54:31;;;;;;;4.40;1.20;;;;;;;18.92;43.51;98942.65;104857;1271;61172;-25
2022/05/13 09:57:10;;;;;;;5.60;1.20;;;;;;;19.00;43.77;98947.34;104785;1272;75949;-25
2022/05/13 10:00:01;;;;;;;7.10;1.20;;;;;;;18.84;43.06;98946.87;104685;1274;76051;-25
2022/05/13 10:02:41;;;;;;;5.90;1.20;;;;;;;18.92;43.52;98941.84;105042;1272;73234;-24
2022/05/13 10:05:22;;;;;;;6.40;1.20;;;;;;;18.88;43.98;98937.61;104956;1271;62157;-24
2022/05/13 10:07:54;;;;;;;5.40;1.50;;;;;;;19.07;44.21;98932.59;104806;1271;62255;-26
2022/05/13 10:16:33;;;;;;;10.60;1.60;;;;;;;19.11;44.66;98929.51;104669;1272;73294;-25
2022/05/13 10:19:11;;;;;;;3.40;1.10;;;;;;;19.32;43.96;98921.04;104745;1272;62179;-26
2022/05/13 10:22:12;;;;;;;5.30;1.50;;;;;;;19.32;42.85;98921.48;104760;1271;61090;-25
2022/05/13 10:25:11;;;;;;;4.70;1.30;;;;;;;19.31;42.29;98912.33;104987;1271;74539;-24
2022/05/13 10:28:10;;;;;;;6.50;1.20;;;;;;;19.33;43.26;98913.86;104998;1271;75961;-24
2022/05/13 10:30:41;;;;;;;2.80;1.10;;;;;;;19.30;43.29;98918.39;104836;1271;74348;-25
2022/05/13 10:33:13;;;;;;;2.30;0.80;;;;;;;19.21;42.65;98912.80;105154;1271;62104;-26
2022/05/13 10:36:02;;;;;;;2.80;0.80;;;;;;;19.26;41.44;98914.39;105152;1273;61252;-25
2022/05/13 10:38:36;;;;;;;1.10;0.80;;;;;;;19.45;41.60;98907.98;105132;1271;75512;-26
2022/05/13 10:41:32;;;;;;;2.60;1.10;;;;;;;19.46;41.44;98913.02;105130;1271;74834;-26
2022/05/13 10:44:07;;;;;;;3.20;1.20;;;;;;;19.65;41.55;98914.77;105118;1271;73193;-26
2022/05/13 10:46:44;;;;;;;3.60;0.90;;;;;;;19.43;40.99;98909.59;105122;1271;62186;-26
2022/05/13 10:49:40;;;;;;;2.90;1.10;;;;;;;19.24;41.77;98913.38;105125;1271;62034;-26
2022/05/13 10:52:27;;;;;;;3.80;1.00;;;;;;;19.16;41.96;98915.81;104712;1272;74498;-26
2022/05/13 10:55:03;;;;;;;3.80;0.90;;;;;;;19.04;42.37;98912.56;105118;1271;74986;-26
2022/05/13 10:57:54;;;;;;;2.10;1.00;;;;;;;18.98;43.00;98912.33;104919;1272;73941;-26
2022/05/13 11:00:56;;;;;;;3.20;0.90;;;;;;;19.17;43.56;98911.20;105096;1271;61300;-26
2022/05/13 11:03:45;;;;;;;13.10;1.40;;;;;;;19.35;42.78;98907.92;105109;1271;62585;-26
2022/05/13 11:06:25;;;;;;;5.30;0.80;;;;;;;19.32;42.31;98909.59;105142;1274;75585;-26
2022/05/13 11:09:03;;;;;;;7.20;1.10;;;;;;;19.57;42.43;98903.42;105151;1274;75816;-26
2022/05/13 11:11:44;;;;;;;8.00;0.70;;;;;;;19.82;44.02;98906.89;105085;1274;74399;-26
2022/05/13 11:14:15;;;;;;;6.60;1.00;;;;;;;20.05;40.97;98901.15;104787;1274;61141;-26
2022/05/13 11:17:25;;;;;;;6.90;1.20;;;;;;;20.27;40.98;98903.52;105070;1271;63579;-26
2022/05/13 11:20:05;;;;;;;3.50;1.20;;;;;;;19.93;40.41;98895.46;104564;1274;75556;-26
2022/05/13 11:22:46;;;;;;;7.00;1.00;;;;;;;19.54;40.88;98888.45;104777;1274;74840;-26
2022/05/13 11:28:27;;;;;;;2.90;0.90;;;;;;;19.83;39.99;98888.95;105140;1274;62125;-26
2022/05/13 11:31:37;;;;;;;2.90;1.60;;;;;;;19.90;39.64;98886.54;105033;1274;61089;-26
2022/05/13 11:34:36;;;;;;;21.10;1.30;;;;;;;19.78;39.83;98889.59;104520;1280;76106;-26
2022/05/13 11:37:09;;;;;;;11.00;1.00;;;;;;;19.70;39.16;98887.02;104430;1281;75888;-26
2022/05/13 11:40:03;;;;;;;7.20;1.10;;;;;;;19.55;39.89;98877.20;104650;1275;73831;-26
2022/05/13 11:43:21;;;;;;;6.20;1.00;;;;;;;19.51;40.50;98869.85;104876;1274;62621;-26
2022/05/13 11:46:01;;;;;;;7.20;1.00;;;;;;;19.59;41.54;98871.12;104998;1274;61036;-26
2022/05/13 11:48:34;;;;;;;6.30;1.60;;;;;;;19.81;40.43;98866.33;105088;1274;75617;-26
2022/05/13 11:51:11;;;;;;;5.20;1.10;;;;;;;20.01;40.95;98866.48;104674;1274;75038;-26
2022/05/13 11:53:45;;;;;;;3.30;0.90;;;;;;;20.19;39.47;98867.48;104738;1274;73704;-26
2022/05/13 11:56:17;;;;;;;7.10;1.00;;;;;;;20.23;39.60;98866.15;104744;1272;61128;-26
2022/05/13 11:58:47;;;;;;;3.40;0.80;;;;;;;20.18;38.91;98866.04;105005;1271;61102;-26
2022/05/13 12:01:37;;;;;;;1.90;1.00;;;;;;;20.24;39.66;98854.69;105147;1271;74853;-26
2022/05/13 12:04:11;;;;;;;3.30;1.10;;;;;;;20.00;37.78;98851.14;105078;1271;75974;-26
2022/05/13 12:06:50;;;;;;;7.10;1.30;;;;;;;20.23;39.15;98849.85;105118;1271;75755;-26
2022/05/13 12:09:31;;;;;;;2.60;1.10;;;;;;;20.26;39.14;98842.50;105103;1274;61169;-25
2022/05/13 12:12:11;;;;;;;5.80;0.90;;;;;;;20.40;39.92;98843.40;105013;1271;61108;-26
2022/05/13 12:15:07;;;;;;;3.60;1.10;;;;;;;20.16;38.91;98842.15;104871;1274;75474;-26
2022/05/13 12:17:43;;;;;;;9.20;1.20;;;;;;;20.33;40.99;98845.48;104920;1274;75867;-26
2022/05/13 12:20:26;;;;;;;4.20;1.10;;;;;;;20.36;38.18;98839.96;104817;1274;74380;-26
2022/05/13 12:23:32;;;;;;;5.60;1.20;;;;;;;20.54;39.15;98832.62;105109;1271;61141;-25
2022/05/13 12:26:04;;;;;;;2.90;1.20;;;;;;;20.69;39.53;98828.10;105177;1274;61031;-25
2022/05/13 12:28:40;;;;;;;3.30;0.80;;;;;;;20.59;37.85;98835.02;104757;1275;74410;-25
2022/05/13 12:31:35;;;;;;;5.30;1.10;;;;;;;20.72;37.36;98827.80;104885;1271;74966;-25
2022/05/13 12:39:52;;;;;;;2.70;1.20;;;;;;;21.42;37.50;98811.66;104925;1274;61054;-25
2022/05/13 12:42:56;;;;;;;4.50;1.00;;;;;;;21.24;38.83;98804.53;105138;1274;75275;-25
2022/05/13 12:45:40;;;;;;;7.30;1.10;;;;;;;21.26;37.47;98804.22;104919;1273;75872;-25
2022/05/13 12:48:08;;;;;;;3.90;0.80;;;;;;;21.07;36.66;98793.30;105068;1271;74363;-25
2022/05/13 12:50:38;;;;;;;6.60;1.10;;;;;;;20.99;37.19;98790.42;105127;1271;61281;-25
2022/05/13 12:53:41;;;;;;;2.00;1.10;;;;;;;20.92;37.00;98793.22;105125;1271;61138;-25
2022/05/13 12:56:34;;;;;;;3.50;0.90;;;;;;;20.92;36.47;98783.21;104832;1271;75427;-25
2022/05/13 12:59:02;;;;;;;2.20;0.70;;;;;;;20.85;37.08;98779.02;104996;1274;75853;-25
2022/05/13 13:01:31;;;;;;;2.90;0.80;;;;;;;20.88;37.66;98771.87;105127;1274;74339;-25
2022/05/13 13:03:58;;;;;;;1.70;0.90;;;;;;;20.78;37.39;98765.88;105171;1271;61045;-25
2022/05/13 13:06:39;;;;;;;3.10;0.80;;;;;;;21.03;36.75;98765.27;105055;1271;61305;-25
2022/05/13 13:09:29;;;;;;;3.30;1.20;;;;;;;21.19;36.15;98765.27;104776;1272;75435;-25
2022/05/13 13:12:04;;;;;;;2.40;0.80;;;;;;;21.09;36.48;98766.23;105169;1271;75818;-25
2022/05/13 13:15:08;;;;;;;4.40;1.00;;;;;;;21.06;37.11;98764.96;105070;1271;74305;-25
2022/05/13 13:17:56;;;;;;;1.80;0.90;;;;;;;21.03;36.79;98759.92;105103;1271;61050;-25
2022/05/13 13:20:26;;;;;;;6.90;0.80;;;;;;;20.94;36.68;98756.13;105134;1271;61047;-25
2022/05/13 13:22:56;;;;;;;3.50;0.90;;;;;;;20.85;36.55;98751.34;104984;1274;75614;-25
2022/05/13 13:25:57;;;;;;;1.60;0.80;;;;;;;20.82;37.40;98751.80;104782;1272;76158;-25
2022/05/13 13:28:29;;;;;;;4.80;0.80;;;;;;;20.59;37.30;98740.85;104747;1274;74537;-25
2022/05/13 13:31:05;;;;;;;2.20;1.00;;;;;;;20.61;38.33;98736.39;104704;1271;62213;-25
2022/05/13 13:33:37;;;;;;;3.10;1.00;;;;;;;20.59;38.37;98742.16;104754;1271;61164;-26
2022/05/13 13:36:13;;;;;;;1.70;0.70;;;;;;;20.67;37.86;98737.74;104686;1271;75448;-25
2022/05/13 13:38:45;;;;;;;4.30;0.90;;;;;;;20.78;37.45;98731.66;104821;1271;77658;-25
2022/05/13 13:41:26;;;;;;;3.30;0.80;;;;;;;20.88;36.88;98728.67;104969;1271;74490;-25
2022/05/13 13:43:54;;;;;;;4.60;1.20;;;;;;;20.95;37.25;98721.97;105055;1274;61798;-25
2022/05/13 13:46:51;;;;;;;4.00;0.90;;;;;;;21.12;36.53;98722.04;105133;1271;61070;-25
2022/05/13 13:49:25;;;;;;;2.40;1.00;;;;;;;21.41;37.16;98719.89;105029;1271;75484;-25
2022/05/13 13:51:55;;;;;;;4.50;0.80;;;;;;;21.66;36.81;98715.86;104885;1271;74964;-25
2022/05/13 13:54:51;;;;;;;1.50;1.00;;;;;;;21.89;37.00;98717.07;104914;1274;74423;-25
2022/05/13 13:57:28;;;;;;;3.50;0.90;;;;;;;21.69;36.01;98712.56;105064;1271;61147;-25